createdAt,value
2019-02-22T00:00:50.317Z,98.10
2019-02-22T00:03:18.154Z,97.90
2019-02-22T00:05:45.759Z,98.00
2019-02-22T00:08:13.382Z,98.10
2019-02-22T00:10:41.155Z,98.00
2019-02-22T00:13:08.807Z,98.10
2019-02-22T00:15:38.457Z,98.20
2019-02-22T00:18:06.038Z,98.30
2019-02-22T00:20:33.817Z,98.50
2019-02-22T00:23:01.266Z,98.30
2019-02-22T00:25:28.909Z,98.30
2019-02-22T00:27:56.546Z,98.30
2019-02-22T00:30:24.220Z,98.30
2019-02-22T00:32:52.449Z,98.30
2019-02-22T00:35:20.002Z,98.40
2019-02-22T00:37:47.533Z,98.40
2019-02-22T00:40:15.160Z,98.40
2019-02-22T00:42:42.696Z,98.30
2019-02-22T00:45:11.446Z,98.30
2019-02-22T00:47:38.982Z,98.60
2019-02-22T00:50:06.908Z,98.30
2019-02-22T00:52:35.090Z,98.80
2019-02-22T00:55:03.117Z,98.50
2019-02-22T00:57:32.080Z,98.50
2019-02-22T01:00:00.245Z,98.50
2019-02-22T01:02:28.105Z,98.50
2019-02-22T01:04:55.843Z,98.50
2019-02-22T01:07:23.681Z,98.50
2019-02-22T01:09:51.469Z,98.40
2019-02-22T01:12:19.496Z,98.40
2019-02-22T01:14:47.300Z,98.70
2019-02-22T01:17:15.147Z,98.60
2019-02-22T01:19:43.119Z,98.50
2019-02-22T01:22:11.828Z,98.60
2019-02-22T01:24:39.752Z,98.60
2019-02-22T01:27:07.694Z,98.60
2019-02-22T01:29:35.849Z,98.70
2019-02-22T01:32:03.780Z,98.80
2019-02-22T01:34:31.688Z,98.80
2019-02-22T01:36:59.554Z,98.80
2019-02-22T01:39:27.389Z,98.90
2019-02-22T01:41:55.354Z,99.40
2019-02-22T01:44:23.250Z,99.00
2019-02-22T01:46:51.215Z,99.00
2019-02-22T01:49:19.081Z,99.00
2019-02-22T01:51:47.067Z,99.00
2019-02-22T01:54:14.916Z,99.00
2019-02-22T01:56:42.899Z,99.10
2019-02-22T01:59:10.716Z,99.10
2019-02-22T02:01:39.809Z,99.50
2019-02-22T02:04:07.685Z,99.20
2019-02-22T02:06:35.651Z,99.40
2019-02-22T02:09:04.914Z,99.20
2019-02-22T02:11:34.071Z,99.20
2019-02-22T02:14:02.391Z,99.20
2019-02-22T02:16:30.217Z,99.20
2019-02-22T02:18:58.063Z,99.20
2019-02-22T02:21:25.950Z,99.30
2019-02-22T02:23:53.809Z,99.30
2019-02-22T02:26:21.810Z,99.00
2019-02-22T02:28:51.617Z,99.30
2019-02-22T02:31:19.607Z,99.50
2019-02-22T02:33:47.545Z,99.30
2019-02-22T02:36:15.434Z,99.40
2019-02-22T02:38:43.238Z,99.30
2019-02-22T02:41:11.693Z,99.40
2019-02-22T02:43:39.275Z,99.30
2019-02-22T02:46:06.724Z,99.30
2019-02-22T02:48:34.344Z,99.30
2019-02-22T02:51:01.915Z,99.60
2019-02-22T02:53:29.343Z,99.30
2019-02-22T02:55:56.762Z,99.20
2019-02-22T02:58:24.584Z,99.30
2019-02-22T03:00:52.616Z,99.30
2019-02-22T03:03:20.827Z,99.20
2019-02-22T03:06:02.534Z,99.20
2019-02-22T03:08:34.193Z,99.20
2019-02-22T03:11:02.201Z,99.20
2019-02-22T03:13:30.499Z,99.20
2019-02-22T03:15:58.351Z,99.20
2019-02-22T03:18:26.276Z,99.20
2019-02-22T03:20:55.897Z,99.20
2019-02-22T03:23:24.644Z,99.10
2019-02-22T03:25:52.932Z,99.00
2019-02-22T03:28:20.601Z,99.00
2019-02-22T03:30:48.327Z,99.00
2019-02-22T03:33:15.772Z,98.90
2019-02-22T03:35:43.308Z,98.90
2019-02-22T03:38:10.802Z,98.90
2019-02-22T03:40:39.203Z,98.90
2019-02-22T03:43:06.705Z,99.00
2019-02-22T03:45:34.630Z,98.90
2019-02-22T03:48:02.502Z,98.90
2019-02-22T03:50:30.378Z,98.90
2019-02-22T03:53:04.553Z,98.90
2019-02-22T03:55:33.185Z,98.80
2019-02-22T03:58:01.105Z,98.80
2019-02-22T04:00:29.136Z,98.80
2019-02-22T04:02:56.767Z,98.80
2019-02-22T04:05:26.276Z,98.70
2019-02-22T04:07:53.932Z,98.70
2019-02-22T04:10:21.558Z,98.70
2019-02-22T04:12:49.590Z,98.60
2019-02-22T04:15:17.235Z,98.70
2019-02-22T04:17:44.922Z,98.70
2019-02-22T04:20:12.597Z,98.80
2019-02-22T04:22:40.138Z,98.80
2019-02-22T04:25:07.880Z,98.80
2019-02-22T04:27:35.820Z,98.70
2019-02-22T04:30:03.926Z,99.00
2019-02-22T04:32:31.712Z,98.70
2019-02-22T04:34:59.364Z,98.70
2019-02-22T04:37:26.932Z,98.30
2019-02-22T04:39:54.576Z,97.40
2019-02-22T04:42:22.134Z,97.60
2019-02-22T04:44:49.638Z,97.50
2019-02-22T04:47:17.157Z,97.30
2019-02-22T04:49:44.816Z,97.40
2019-02-22T04:52:12.793Z,97.20
2019-02-22T04:54:40.556Z,97.20
2019-02-22T04:57:08.119Z,97.30
2019-02-22T04:59:35.851Z,97.00
2019-02-22T05:02:03.542Z,97.30
2019-02-22T05:04:31.211Z,96.70
2019-02-22T05:06:59.940Z,96.70
2019-02-22T05:09:28.072Z,96.70
2019-02-22T05:11:55.557Z,96.60
2019-02-22T05:14:23.048Z,96.60
2019-02-22T05:16:50.744Z,95.80
2019-02-22T05:19:18.301Z,95.40
2019-02-22T05:21:46.171Z,95.60
2019-02-22T05:24:13.816Z,95.50
2019-02-22T05:26:41.346Z,95.80
2019-02-22T05:29:08.869Z,95.90
2019-02-22T05:31:36.683Z,96.00
2019-02-22T05:34:04.582Z,95.80
2019-02-22T05:36:32.173Z,95.40
2019-02-22T05:38:59.931Z,95.10
2019-02-22T05:41:27.460Z,95.40
2019-02-22T05:43:55.024Z,94.70
2019-02-22T05:46:23.200Z,94.40
2019-02-22T05:48:51.027Z,94.20
2019-02-22T05:51:18.716Z,94.70
2019-02-22T05:53:46.247Z,95.10
2019-02-22T05:56:13.866Z,95.30
2019-02-22T05:58:42.255Z,95.30
2019-02-22T06:01:09.688Z,95.30
2019-02-22T06:03:37.826Z,95.50
2019-02-22T06:06:05.509Z,95.40
2019-02-22T06:08:32.896Z,95.30
2019-02-22T06:11:02.352Z,95.50
2019-02-22T06:13:29.820Z,96.00
2019-02-22T06:15:57.370Z,95.60
2019-02-22T06:18:27.253Z,96.10
2019-02-22T06:20:56.107Z,96.10
2019-02-22T06:23:23.782Z,96.10
2019-02-22T06:25:52.225Z,95.60
2019-02-22T06:28:22.744Z,96.20
2019-02-22T06:30:50.825Z,96.40
2019-02-22T06:33:19.275Z,96.50
2019-02-22T06:35:46.654Z,96.70
2019-02-22T06:38:14.130Z,96.90
2019-02-22T06:40:41.811Z,97.00
2019-02-22T06:43:09.220Z,97.00
2019-02-22T06:45:37.053Z,96.80
2019-02-22T06:48:04.994Z,96.50
2019-02-22T06:50:34.053Z,96.70
2019-02-22T06:53:01.798Z,96.80
2019-02-22T06:55:29.185Z,96.10
2019-02-22T06:57:56.534Z,95.10
2019-02-22T07:00:24.376Z,94.70
2019-02-22T07:02:51.959Z,94.80
2019-02-22T07:05:19.345Z,94.80
2019-02-22T07:07:47.457Z,94.60
2019-02-22T07:10:15.284Z,94.90
2019-02-22T07:12:56.562Z,94.70
2019-02-22T07:15:16.438Z,94.60
2019-02-22T07:17:44.071Z,94.30
2019-02-22T07:20:11.627Z,94.10
2019-02-22T07:22:39.294Z,93.90
2019-02-22T07:25:08.633Z,94.00
2019-02-22T07:27:36.527Z,93.60
2019-02-22T07:30:04.851Z,93.50
2019-02-22T07:32:32.399Z,93.00
2019-02-22T07:35:00.468Z,92.70
2019-02-22T07:37:28.225Z,92.20
2019-02-22T07:39:56.536Z,91.90
2019-02-22T07:42:24.339Z,92.20
2019-02-22T07:44:51.900Z,92.00
2019-02-22T07:48:15.017Z,91.50
2019-02-22T07:50:42.824Z,90.90
2019-02-22T07:53:10.384Z,90.50
2019-02-22T07:55:38.135Z,90.30
2019-02-22T07:58:08.585Z,90.30
2019-02-22T08:00:35.481Z,90.50
2019-02-22T08:03:03.162Z,90.00
2019-02-22T08:05:30.808Z,90.20
2019-02-22T08:07:58.401Z,90.40
2019-02-22T08:10:26.356Z,90.20
2019-02-22T08:12:53.893Z,89.60
2019-02-22T08:15:22.058Z,89.70
2019-02-22T08:17:49.745Z,90.40
2019-02-22T08:20:17.298Z,90.80
2019-02-22T08:22:44.745Z,91.00
2019-02-22T08:25:12.505Z,90.70
2019-02-22T08:27:52.788Z,90.70
2019-02-22T08:30:10.699Z,90.60
2019-02-22T08:32:38.334Z,91.20
2019-02-22T08:35:06.399Z,90.80
2019-02-22T08:37:34.358Z,91.10
2019-02-22T08:40:02.644Z,91.70
2019-02-22T08:42:30.569Z,91.20
2019-02-22T08:44:58.531Z,90.50
2019-02-22T08:47:26.526Z,90.40
2019-02-22T08:49:54.142Z,90.90
2019-02-22T08:52:21.697Z,90.30
2019-02-22T08:54:49.334Z,89.10
2019-02-22T08:57:16.820Z,85.80
2019-02-22T08:59:45.471Z,79.20
2019-02-22T09:02:13.227Z,70.30
2019-02-22T09:04:41.643Z,57.80
2019-02-22T09:07:10.146Z,51.10
2019-02-22T09:09:37.936Z,53.00
2019-02-22T09:12:05.675Z,56.00
2019-02-22T09:14:33.384Z,53.90
2019-02-22T09:17:00.874Z,49.50
2019-02-22T09:19:28.608Z,49.20
2019-02-22T09:21:56.062Z,50.10
2019-02-22T09:24:23.604Z,51.50
2019-02-22T09:26:51.230Z,53.50
2019-02-22T09:29:18.843Z,55.00
2019-02-22T09:31:46.371Z,55.70
2019-02-22T09:34:13.824Z,55.90
2019-02-22T09:36:41.491Z,55.10
2019-02-22T09:39:12.211Z,55.00
2019-02-22T09:41:40.207Z,53.10
2019-02-22T09:44:07.816Z,54.90
2019-02-22T09:46:35.335Z,56.40
2019-02-22T09:49:02.917Z,56.90
2019-02-22T09:51:30.490Z,58.50
2019-02-22T09:53:57.920Z,58.80
2019-02-22T09:56:25.368Z,60.00
2019-02-22T09:58:52.991Z,60.30
2019-02-22T10:01:20.485Z,60.30
2019-02-22T10:03:47.938Z,60.20
2019-02-22T10:06:15.644Z,58.90
2019-02-22T10:08:43.165Z,53.50
2019-02-22T10:11:10.730Z,49.30
2019-02-22T10:13:38.137Z,49.60
2019-02-22T10:16:05.676Z,50.90
2019-02-22T10:18:33.258Z,52.20
2019-02-22T10:21:00.984Z,53.40
2019-02-22T10:23:29.413Z,57.50
2019-02-22T10:25:57.089Z,58.70
2019-02-22T10:28:24.642Z,58.50
2019-02-22T10:30:52.129Z,58.90
2019-02-22T10:33:19.714Z,59.10
2019-02-22T10:35:47.333Z,57.40
2019-02-22T10:38:15.817Z,55.70
2019-02-22T10:40:43.306Z,53.60
2019-02-22T10:43:10.756Z,47.80
2019-02-22T10:45:38.188Z,40.80
2019-02-22T10:48:05.749Z,33.30
2019-02-22T10:50:33.720Z,30.70
2019-02-22T10:53:02.482Z,28.70
2019-02-22T10:55:30.051Z,28.50
2019-02-22T10:57:57.618Z,27.80
2019-02-22T11:00:25.294Z,28.00
2019-02-22T11:02:52.934Z,29.50
2019-02-22T11:05:20.633Z,31.90
2019-02-22T11:07:48.463Z,33.20
2019-02-22T11:10:16.233Z,35.20
2019-02-22T11:12:43.776Z,37.30
2019-02-22T11:15:11.607Z,39.80
2019-02-22T11:17:39.389Z,38.60
2019-02-22T11:20:07.262Z,33.50
2019-02-22T11:22:34.713Z,29.50
2019-02-22T11:25:02.467Z,26.90
2019-02-22T11:27:30.103Z,24.30
2019-02-22T11:29:57.932Z,23.40
2019-02-22T11:32:25.777Z,22.30
2019-02-22T11:34:53.402Z,21.90
2019-02-22T11:37:20.768Z,21.70
2019-02-22T11:39:48.382Z,22.40
2019-02-22T11:42:15.912Z,24.80
2019-02-22T11:44:45.289Z,25.80
2019-02-22T11:47:13.111Z,26.90
2019-02-22T11:49:40.755Z,25.30
2019-02-22T11:52:08.998Z,23.50
2019-02-22T11:54:36.704Z,22.30
2019-02-22T11:57:04.703Z,22.60
2019-02-22T11:59:32.108Z,23.30
2019-02-22T12:01:59.901Z,24.20
2019-02-22T12:04:27.344Z,26.00
2019-02-22T12:06:55.058Z,26.70
2019-02-22T12:09:22.764Z,24.80
2019-02-22T12:11:50.782Z,22.90
2019-02-22T12:14:18.343Z,21.70
2019-02-22T12:16:47.031Z,20.50
2019-02-22T12:19:14.556Z,19.70
2019-02-22T12:21:41.990Z,19.80
2019-02-22T12:24:09.691Z,19.20
2019-02-22T12:26:37.258Z,20.00
2019-02-22T12:29:04.886Z,22.10
2019-02-22T12:31:32.775Z,22.00
2019-02-22T12:34:00.222Z,21.50
2019-02-22T12:36:27.892Z,21.20
2019-02-22T12:38:55.533Z,20.30
2019-02-22T12:41:23.157Z,19.50
2019-02-22T12:43:50.724Z,18.90
2019-02-22T12:46:18.446Z,18.50
2019-02-22T12:48:46.003Z,18.20
2019-02-22T12:51:13.675Z,18.50
2019-02-22T12:53:41.040Z,18.10
2019-02-22T12:56:08.571Z,17.30
2019-02-22T12:58:36.483Z,18.60
2019-02-22T13:01:04.166Z,20.00
2019-02-22T13:03:31.802Z,20.80
2019-02-22T13:13:38.927Z,18.60
2019-02-22T13:16:07.023Z,18.20
2019-02-22T13:18:34.923Z,17.80
2019-02-22T13:21:02.968Z,17.60
2019-02-22T13:23:30.423Z,17.90
2019-02-22T13:25:58.138Z,17.00
2019-02-22T13:28:25.553Z,17.70
2019-02-22T13:30:52.993Z,17.80
2019-02-22T13:33:20.582Z,19.20
2019-02-22T13:35:48.137Z,18.70
2019-02-22T13:38:15.702Z,20.10
2019-02-22T13:40:43.194Z,21.20
2019-02-22T13:43:10.828Z,20.60
2019-02-22T13:45:38.378Z,19.50
2019-02-22T13:48:06.178Z,18.20
2019-02-22T13:50:33.739Z,18.10
2019-02-22T13:53:01.503Z,18.10
2019-02-22T13:55:28.889Z,18.00
2019-02-22T13:57:56.472Z,18.10
2019-02-22T14:00:24.308Z,17.50
2019-02-22T14:02:51.730Z,17.50
2019-02-22T14:05:19.404Z,17.70
2019-02-22T14:07:54.381Z,17.70
2019-02-22T14:10:22.218Z,17.10
2019-02-22T14:12:49.748Z,17.10
2019-02-22T14:15:19.947Z,17.40
2019-02-22T14:17:48.190Z,17.40
2019-02-22T14:20:16.222Z,17.80
2019-02-22T14:22:45.069Z,18.20
2019-02-22T14:25:14.516Z,18.40
2019-02-22T14:27:42.451Z,17.90
2019-02-22T14:30:11.005Z,17.50
2019-02-22T14:32:39.866Z,17.20
2019-02-22T14:35:08.110Z,17.80
2019-02-22T14:37:36.100Z,17.70
2019-02-22T14:40:06.656Z,17.90
2019-02-22T14:42:34.829Z,18.20
2019-02-22T14:45:03.309Z,18.30
2019-02-22T14:47:30.911Z,18.70
2019-02-22T14:49:59.730Z,19.30
2019-02-22T14:52:27.564Z,20.40
2019-02-22T14:54:55.090Z,22.80
2019-02-22T14:57:23.156Z,23.40
2019-02-22T14:59:51.018Z,25.30
2019-02-22T15:02:18.856Z,25.80
2019-02-22T15:04:46.593Z,27.10
2019-02-22T15:07:14.212Z,27.90
2019-02-22T15:09:42.085Z,28.60
2019-02-22T15:12:11.779Z,30.30
2019-02-22T15:14:41.008Z,30.80
2019-02-22T15:17:35.584Z,31.30
2019-02-22T15:20:06.387Z,31.00
2019-02-22T15:22:34.113Z,30.70
2019-02-22T15:25:01.608Z,30.10
2019-02-22T15:27:31.145Z,30.30
2019-02-22T15:29:58.954Z,30.90
2019-02-22T15:32:26.594Z,30.20
2019-02-22T15:34:55.048Z,30.70
2019-02-22T15:37:23.605Z,31.80
2019-02-22T15:39:51.977Z,32.70
2019-02-22T15:42:23.846Z,33.50
2019-02-22T15:44:52.721Z,35.40
2019-02-22T15:47:20.566Z,37.00
2019-02-22T15:49:49.071Z,37.50
2019-02-22T15:52:17.143Z,39.60
2019-02-22T15:54:48.694Z,40.80
2019-02-22T15:57:18.316Z,40.40
2019-02-22T15:59:49.474Z,40.70
2019-02-22T16:02:19.060Z,41.40
2019-02-22T16:04:51.785Z,42.00
2019-02-22T16:07:20.840Z,42.30
2019-02-22T16:09:51.419Z,42.60
2019-02-22T16:12:21.612Z,43.60
2019-02-22T16:14:53.246Z,43.70
2019-02-22T16:17:24.414Z,43.20
2019-02-22T16:19:55.880Z,42.40
2019-02-22T16:22:26.287Z,42.50
2019-02-22T16:24:55.687Z,42.40
2019-02-22T16:27:24.161Z,42.80
2019-02-22T16:29:51.652Z,43.90
2019-02-22T16:32:19.329Z,44.20
2019-02-22T16:34:47.228Z,45.00
2019-02-22T16:37:14.755Z,45.40
2019-02-22T16:39:42.312Z,46.40
2019-02-22T16:42:09.818Z,47.40
2019-02-22T16:44:37.382Z,47.10
2019-02-22T16:47:05.150Z,46.20
2019-02-22T16:49:32.887Z,46.70
2019-02-22T16:52:00.354Z,46.00
2019-02-22T16:54:29.173Z,47.10
2019-02-22T16:56:56.857Z,46.60
2019-02-22T16:59:24.513Z,46.40
2019-02-22T17:01:52.420Z,46.60
2019-02-22T17:04:20.016Z,46.40
2019-02-22T17:06:47.579Z,47.80
2019-02-22T17:09:15.224Z,47.50
2019-02-22T17:11:42.794Z,47.90
2019-02-22T17:14:10.664Z,48.00
2019-02-22T17:16:45.761Z,48.00
2019-02-22T17:19:08.321Z,48.20
2019-02-22T17:21:36.075Z,48.00
2019-02-22T17:24:03.760Z,47.70
2019-02-22T17:26:31.978Z,47.60
2019-02-22T17:28:59.583Z,47.90
2019-02-22T17:31:27.600Z,47.50
2019-02-22T17:33:55.023Z,47.50
2019-02-22T17:36:26.900Z,48.00
2019-02-22T17:38:52.639Z,48.60
2019-02-22T17:41:20.052Z,49.10
2019-02-22T17:43:48.662Z,49.00
2019-02-22T17:46:16.092Z,49.20
2019-02-22T17:48:44.674Z,49.10
2019-02-22T17:51:12.212Z,48.80
2019-02-22T17:53:39.967Z,49.00
2019-02-22T17:56:07.685Z,48.80
2019-02-22T17:58:36.145Z,48.60
2019-02-22T18:01:04.994Z,48.90
2019-02-22T18:03:32.964Z,48.60
2019-02-22T18:06:00.658Z,48.80
2019-02-22T18:08:28.207Z,49.80
2019-02-22T18:10:55.809Z,49.70
2019-02-22T18:13:24.096Z,50.80
2019-02-22T18:15:52.446Z,50.90
2019-02-22T18:18:21.872Z,51.70
2019-02-22T18:20:49.704Z,51.70
2019-02-22T18:23:17.224Z,52.80
2019-02-22T18:25:45.052Z,52.60
2019-02-22T18:28:12.750Z,52.70
2019-02-22T18:30:40.415Z,53.20
2019-02-22T18:33:08.037Z,53.50
2019-02-22T18:35:36.210Z,53.40
2019-02-22T18:38:04.567Z,54.30
2019-02-22T18:40:32.250Z,54.00
2019-02-22T18:43:02.979Z,54.40
2019-02-22T18:45:30.758Z,53.90
2019-02-22T18:47:58.593Z,53.90
2019-02-22T18:50:26.304Z,53.40
2019-02-22T18:52:53.882Z,53.60
2019-02-22T18:55:21.705Z,52.80
2019-02-22T18:57:49.287Z,53.20
2019-02-22T19:00:19.933Z,53.10
2019-02-22T19:02:48.182Z,53.00
2019-02-22T19:05:16.306Z,53.40
2019-02-22T19:07:45.323Z,53.80
2019-02-22T19:10:13.200Z,54.20
2019-02-22T19:12:41.461Z,54.30
2019-02-22T19:15:11.463Z,54.80
2019-02-22T19:17:39.262Z,55.00
2019-02-22T19:20:09.761Z,55.30
2019-02-22T19:22:38.206Z,55.10
2019-02-22T19:25:06.471Z,55.70
2019-02-22T19:27:34.112Z,56.30
2019-02-22T19:30:02.043Z,56.40
2019-02-22T19:32:30.436Z,56.20
2019-02-22T19:34:57.966Z,56.60
2019-02-22T19:37:27.501Z,56.30
2019-02-22T19:39:56.995Z,56.10
2019-02-22T19:42:24.513Z,56.50
2019-02-22T19:44:52.143Z,56.90
2019-02-22T19:47:19.667Z,56.60
2019-02-22T19:49:48.180Z,56.00
2019-02-22T19:52:16.298Z,55.60
2019-02-22T19:54:44.909Z,55.60
2019-02-22T19:57:12.524Z,55.70
2019-02-22T19:59:40.150Z,56.10
2019-02-22T20:02:08.089Z,57.40
2019-02-22T20:04:35.822Z,56.80
2019-02-22T20:07:03.533Z,56.70
2019-02-22T20:09:31.230Z,57.10
2019-02-22T20:11:59.100Z,57.40
2019-02-22T20:14:26.777Z,57.30
2019-02-22T20:16:54.426Z,58.40
2019-02-22T20:19:22.113Z,57.80
2019-02-22T20:21:49.645Z,57.80
2019-02-22T20:24:17.187Z,58.10
2019-02-22T20:26:47.885Z,59.10
2019-02-22T20:29:15.478Z,59.50
2019-02-22T20:31:43.274Z,60.80
2019-02-22T20:34:11.025Z,60.30
2019-02-22T20:36:38.894Z,60.20
2019-02-22T20:39:07.126Z,60.80
2019-02-22T20:41:35.452Z,61.20
2019-02-22T20:44:03.247Z,60.40
2019-02-22T20:46:32.104Z,62.10
2019-02-22T20:49:01.332Z,61.20
2019-02-22T20:51:29.448Z,61.00
2019-02-22T20:53:57.988Z,61.10
2019-02-22T20:56:26.041Z,61.60
2019-02-22T20:58:54.723Z,62.20
2019-02-22T21:01:22.438Z,62.20
2019-02-22T21:03:50.139Z,62.50
2019-02-22T21:06:17.768Z,63.40
2019-02-22T21:08:46.518Z,63.30
2019-02-22T21:11:14.301Z,63.40
2019-02-22T21:13:42.064Z,63.60
2019-02-22T21:16:09.855Z,64.20
2019-02-22T21:18:37.603Z,64.50
2019-02-22T21:21:06.304Z,64.60
2019-02-22T21:23:33.730Z,65.00
2019-02-22T21:26:01.311Z,65.10
2019-02-22T21:28:28.943Z,65.20
2019-02-22T21:30:56.615Z,65.50
2019-02-22T21:33:24.216Z,66.50
2019-02-22T21:35:51.970Z,66.20
2019-02-22T21:38:19.629Z,67.10
2019-02-22T21:40:49.117Z,66.70
2019-02-22T21:43:16.814Z,66.80
2019-02-22T21:45:45.675Z,67.70
2019-02-22T21:48:13.230Z,67.50
2019-02-22T21:50:40.791Z,68.00
2019-02-22T21:53:08.354Z,69.00
2019-02-22T21:55:36.151Z,68.70
2019-02-22T21:58:05.952Z,68.60
2019-02-22T22:00:33.720Z,68.50
2019-02-22T22:03:01.254Z,69.10
2019-02-22T22:05:29.014Z,70.00
2019-02-22T22:07:56.704Z,70.60
2019-02-22T22:10:24.270Z,70.00
2019-02-22T22:12:52.299Z,70.40
2019-02-22T22:15:19.871Z,71.10
2019-02-22T22:17:47.417Z,70.50
2019-02-22T22:20:15.387Z,70.90
2019-02-22T22:22:44.419Z,71.40
2019-02-22T22:25:12.142Z,71.10
2019-02-22T22:27:40.769Z,71.30
2019-02-22T22:30:09.764Z,72.30
2019-02-22T22:32:37.402Z,73.10
2019-02-22T22:35:05.795Z,72.50
2019-02-22T22:37:33.244Z,72.30
2019-02-22T22:40:00.921Z,72.60
2019-02-22T22:42:28.613Z,74.40
2019-02-22T22:44:56.258Z,74.20
2019-02-22T22:47:24.925Z,74.40
2019-02-22T22:49:52.662Z,74.50
2019-02-22T22:52:20.338Z,74.90
2019-02-22T22:54:48.792Z,75.10
2019-02-22T22:57:16.385Z,75.10
2019-02-22T22:59:44.014Z,76.00
2019-02-22T23:02:11.753Z,75.80
2019-02-22T23:04:39.454Z,76.00
2019-02-22T23:07:07.209Z,76.20
2019-02-22T23:09:35.164Z,77.30
2019-02-22T23:12:02.703Z,77.20
2019-02-22T23:14:30.712Z,76.70
2019-02-22T23:16:58.240Z,76.90
2019-02-22T23:19:25.855Z,77.50
2019-02-22T23:21:53.510Z,77.70
2019-02-22T23:24:21.238Z,78.30
2019-02-22T23:26:48.783Z,78.20
2019-02-22T23:29:16.537Z,78.60
2019-02-22T23:31:44.167Z,78.50
2019-02-22T23:34:14.829Z,78.80
2019-02-22T23:36:43.004Z,79.10
2019-02-22T23:39:10.794Z,79.00
2019-02-22T23:41:39.760Z,79.70
2019-02-22T23:44:07.377Z,80.00
2019-02-22T23:46:35.048Z,79.90
2019-02-22T23:49:12.555Z,80.80
2019-02-22T23:51:32.280Z,81.00
2019-02-22T23:53:59.863Z,81.10
2019-02-22T23:56:27.265Z,81.40
2019-02-22T23:58:54.864Z,81.60
